createdAt,value
2018-11-22T00:02:42.335Z,4.80
2018-11-22T00:05:30.972Z,4.80
2018-11-22T00:08:19.675Z,4.80
2018-11-22T00:11:08.305Z,4.70
2018-11-22T00:13:56.938Z,4.70
2018-11-22T00:16:45.550Z,4.60
2018-11-22T00:19:34.640Z,4.70
2018-11-22T00:22:23.245Z,4.60
2018-11-22T00:25:13.242Z,4.60
2018-11-22T00:28:01.910Z,4.60
2018-11-22T00:30:50.552Z,4.60
2018-11-22T00:33:39.462Z,4.50
2018-11-22T00:39:22.461Z,4.40
2018-11-22T00:42:11.075Z,4.30
2018-11-22T00:45:00.007Z,4.20
2018-11-22T00:47:48.628Z,4.00
2018-11-22T00:50:37.265Z,3.80
2018-11-22T00:56:33.665Z,3.70
2018-11-22T00:59:22.646Z,3.60
2018-11-22T01:02:11.283Z,3.60
2018-11-22T01:05:00.170Z,3.60
2018-11-22T01:07:49.006Z,3.60
2018-11-22T01:10:37.648Z,3.60
2018-11-22T01:13:26.261Z,3.60
2018-11-22T01:16:14.903Z,3.60
2018-11-22T01:19:04.103Z,3.50
2018-11-22T01:21:52.754Z,3.50
2018-11-22T01:24:41.361Z,3.50
2018-11-22T01:27:30.041Z,3.60
2018-11-22T01:30:19.953Z,3.60
2018-11-22T01:33:08.590Z,3.60
2018-11-22T01:35:57.213Z,3.60
2018-11-22T01:38:46.193Z,3.60
2018-11-22T01:44:29.686Z,3.70
2018-11-22T01:47:18.333Z,3.70
2018-11-22T01:50:10.976Z,3.70
2018-11-22T01:52:59.617Z,3.70
2018-11-22T01:55:48.232Z,3.70
2018-11-22T01:58:36.951Z,3.70
2018-11-22T02:01:25.545Z,3.70
2018-11-22T02:04:14.185Z,3.70
2018-11-22T02:07:02.830Z,3.70
2018-11-22T02:09:51.440Z,3.70
2018-11-22T02:12:40.241Z,3.80
2018-11-22T02:15:29.679Z,3.80
2018-11-22T02:18:18.400Z,3.80
2018-11-22T02:21:07.042Z,3.80
2018-11-22T02:24:03.373Z,3.70
2018-11-22T02:26:51.981Z,3.70
2018-11-22T02:29:40.622Z,3.70
2018-11-22T02:32:29.322Z,3.70
2018-11-22T02:35:18.256Z,3.70
2018-11-22T02:38:07.070Z,3.80
2018-11-22T02:40:55.730Z,3.80
2018-11-22T02:43:44.374Z,3.80
2018-11-22T02:46:32.985Z,3.80
2018-11-22T02:49:21.626Z,3.70
2018-11-22T02:52:10.319Z,3.70
2018-11-22T02:54:58.987Z,3.70
2018-11-22T02:57:47.663Z,3.70
2018-11-22T03:00:37.772Z,3.60
2018-11-22T03:03:26.409Z,3.50
2018-11-22T03:06:15.013Z,3.50
2018-11-22T03:09:03.704Z,3.50
2018-11-22T03:11:52.305Z,3.50
2018-11-22T03:14:40.951Z,3.50
2018-11-22T03:17:29.561Z,3.50
2018-11-22T03:20:18.563Z,3.50
2018-11-22T03:23:07.174Z,3.50
2018-11-22T03:25:55.810Z,3.40
2018-11-22T03:28:44.415Z,3.40
2018-11-22T03:31:33.066Z,3.40
2018-11-22T03:34:22.007Z,3.40
2018-11-22T03:37:10.612Z,3.40
2018-11-22T03:39:59.257Z,3.40
2018-11-22T03:42:47.947Z,3.30
2018-11-22T03:45:36.580Z,3.20
2018-11-22T03:48:25.475Z,3.20
2018-11-22T03:51:14.112Z,3.20
2018-11-22T03:53:54.740Z,3.20
2018-11-22T03:56:35.499Z,3.20
2018-11-22T03:59:16.996Z,3.20
2018-11-22T04:01:58.294Z,3.20
2018-11-22T04:04:39.958Z,3.20
2018-11-22T04:07:21.255Z,3.10
2018-11-22T04:10:02.536Z,3.10
2018-11-22T04:12:43.881Z,3.10
2018-11-22T04:15:25.161Z,3.00
2018-11-22T04:18:06.655Z,3.00
2018-11-22T04:20:47.760Z,3.00
2018-11-22T04:23:29.545Z,2.90
2018-11-22T04:26:10.830Z,2.90
2018-11-22T04:28:52.223Z,2.80
2018-11-22T04:31:33.509Z,2.80
2018-11-22T04:34:14.810Z,2.80
2018-11-22T04:36:56.437Z,2.70
2018-11-22T04:39:37.165Z,2.70
2018-11-22T04:42:18.241Z,2.70
2018-11-22T04:44:59.749Z,2.70
2018-11-22T04:47:41.320Z,2.70
2018-11-22T04:50:24.051Z,2.70
2018-11-22T04:53:05.364Z,2.60
2018-11-22T04:55:46.691Z,2.60
2018-11-22T04:58:28.051Z,2.60
2018-11-22T05:01:08.794Z,2.70
2018-11-22T05:03:49.875Z,2.60
2018-11-22T05:06:31.270Z,2.60
2018-11-22T05:09:12.670Z,2.50
2018-11-22T05:11:53.368Z,2.50
2018-11-22T05:14:34.791Z,2.50
2018-11-22T05:17:16.254Z,2.50
2018-11-22T05:19:57.489Z,2.40
2018-11-22T05:22:39.320Z,2.40
2018-11-22T05:25:20.986Z,2.40
2018-11-22T05:28:01.988Z,2.40
2018-11-22T05:30:43.892Z,2.40
2018-11-22T05:33:24.899Z,2.40
2018-11-22T05:36:06.095Z,2.40
2018-11-22T05:38:47.676Z,2.40
2018-11-22T05:41:28.841Z,2.40
2018-11-22T05:44:09.936Z,2.40
2018-11-22T05:46:51.321Z,2.40
2018-11-22T05:49:32.676Z,2.40
2018-11-22T05:52:13.448Z,2.40
2018-11-22T05:54:54.852Z,2.40
2018-11-22T05:57:36.459Z,2.30
2018-11-22T06:00:19.566Z,2.30
2018-11-22T06:03:02.439Z,2.20
2018-11-22T06:05:43.143Z,2.20
2018-11-22T06:08:24.527Z,2.20
2018-11-22T06:11:05.940Z,2.20
2018-11-22T06:13:47.473Z,2.20
2018-11-22T06:16:28.874Z,2.20
2018-11-22T06:19:10.051Z,2.20
2018-11-22T06:21:51.444Z,2.20
2018-11-22T06:24:32.919Z,2.20
2018-11-22T06:27:13.981Z,2.30
2018-11-22T06:29:55.305Z,2.30
2018-11-22T06:32:36.483Z,2.30
2018-11-22T06:35:18.086Z,2.20
2018-11-22T06:37:59.071Z,2.20
2018-11-22T06:40:40.156Z,2.20
2018-11-22T06:43:21.471Z,2.10
2018-11-22T06:46:02.936Z,2.10
2018-11-22T06:48:44.000Z,2.10
2018-11-22T06:51:25.335Z,2.10
2018-11-22T06:54:06.613Z,2.10
2018-11-22T06:56:47.810Z,2.10
2018-11-22T06:59:29.148Z,2.10
2018-11-22T07:02:10.328Z,2.10
2018-11-22T07:04:51.211Z,2.10
2018-11-22T07:07:32.578Z,2.10
2018-11-22T07:10:14.855Z,2.10
2018-11-22T07:12:55.746Z,2.10
2018-11-22T07:15:36.522Z,2.10
2018-11-22T07:18:17.607Z,2.10
2018-11-22T07:20:58.735Z,2.20
2018-11-22T07:23:40.220Z,2.20
2018-11-22T07:26:21.788Z,2.20
2018-11-22T07:29:03.269Z,2.20
2018-11-22T07:31:44.608Z,2.30
2018-11-22T07:34:25.715Z,2.30
2018-11-22T07:37:06.692Z,2.40
2018-11-22T07:39:47.822Z,2.40
2018-11-22T07:42:28.858Z,2.40
2018-11-22T07:45:11.260Z,2.40
2018-11-22T07:47:53.189Z,2.50
2018-11-22T07:50:34.446Z,2.50
2018-11-22T07:53:15.377Z,2.60
2018-11-22T07:55:56.499Z,2.60
2018-11-22T07:58:38.099Z,2.50
2018-11-22T08:01:19.592Z,2.60
2018-11-22T08:04:00.975Z,2.60
2018-11-22T08:06:41.998Z,2.70
2018-11-22T08:09:22.682Z,2.70
2018-11-22T08:12:03.609Z,2.70
2018-11-22T08:14:45.097Z,2.70
2018-11-22T08:17:26.533Z,2.70
2018-11-22T08:20:07.942Z,2.70
2018-11-22T08:22:49.408Z,2.80
2018-11-22T08:25:31.566Z,2.80
2018-11-22T08:28:12.945Z,2.90
2018-11-22T08:30:54.403Z,3.00
2018-11-22T08:33:35.713Z,3.10
2018-11-22T08:36:17.117Z,3.20
2018-11-22T08:38:58.345Z,3.20
2018-11-22T08:44:20.194Z,3.30
2018-11-22T08:47:01.552Z,3.30
2018-11-22T08:49:42.559Z,3.30
2018-11-22T08:52:24.019Z,3.40
2018-11-22T08:55:05.403Z,3.40
2018-11-22T08:57:46.814Z,3.50
2018-11-22T09:00:32.200Z,3.50
2018-11-22T09:03:13.624Z,3.60
2018-11-22T09:05:54.727Z,3.70
2018-11-22T09:08:36.201Z,3.70
2018-11-22T09:11:17.438Z,3.80
2018-11-22T09:13:58.818Z,3.80
2018-11-22T09:16:40.382Z,3.80
2018-11-22T09:19:22.692Z,3.80
2018-11-22T09:22:03.752Z,3.80
2018-11-22T09:24:44.754Z,3.90
2018-11-22T09:27:25.747Z,3.90
2018-11-22T09:30:06.802Z,4.00
2018-11-22T09:32:48.698Z,4.00
2018-11-22T09:35:30.961Z,4.10
2018-11-22T09:38:12.209Z,4.20
2018-11-22T09:40:53.648Z,4.20
2018-11-22T09:43:34.465Z,4.30
2018-11-22T09:46:15.784Z,4.30
2018-11-22T09:48:57.340Z,4.30
2018-11-22T09:51:38.087Z,4.30
2018-11-22T09:54:19.571Z,4.40
2018-11-22T09:57:01.332Z,4.40
2018-11-22T09:59:42.336Z,4.40
2018-11-22T10:02:24.041Z,4.50
2018-11-22T10:05:05.090Z,4.60
2018-11-22T10:07:46.569Z,4.70
2018-11-22T10:10:29.654Z,4.60
2018-11-22T10:13:10.929Z,4.70
2018-11-22T10:15:52.150Z,4.70
2018-11-22T10:18:33.766Z,4.60
2018-11-22T10:21:15.074Z,4.40
2018-11-22T10:23:56.696Z,4.50
2018-11-22T10:26:38.146Z,4.60
2018-11-22T10:29:19.626Z,4.70
2018-11-22T10:32:00.518Z,4.70
2018-11-22T10:34:41.978Z,4.80
2018-11-22T10:37:23.133Z,4.80
2018-11-22T10:40:04.272Z,4.80
2018-11-22T10:42:46.649Z,4.90
2018-11-22T10:45:32.219Z,4.90
2018-11-22T10:48:13.937Z,4.90
2018-11-22T10:50:55.435Z,4.90
2018-11-22T10:53:36.407Z,4.90
2018-11-22T10:56:17.538Z,4.90
2018-11-22T10:58:58.754Z,4.90
2018-11-22T11:01:58.692Z,4.90
2018-11-22T11:04:58.106Z,5.00
2018-11-22T11:07:56.249Z,5.00
2018-11-22T11:10:37.475Z,5.00
2018-11-22T11:13:18.481Z,5.00
2018-11-22T11:15:59.941Z,4.90
2018-11-22T11:18:41.448Z,4.90
2018-11-22T11:21:22.523Z,4.80
2018-11-22T11:24:03.698Z,4.90
2018-11-22T11:26:44.720Z,4.70
2018-11-22T11:29:25.967Z,4.70
2018-11-22T11:32:07.754Z,4.70
2018-11-22T11:34:48.830Z,4.80
2018-11-22T11:37:29.976Z,4.80
2018-11-22T11:40:11.986Z,4.80
2018-11-22T11:42:53.570Z,4.80
2018-11-22T11:45:53.839Z,4.80
2018-11-22T11:48:35.055Z,4.70
2018-11-22T11:51:16.379Z,4.70
2018-11-22T11:53:57.526Z,4.70
2018-11-22T11:56:38.682Z,4.70
2018-11-22T11:59:19.607Z,4.70
2018-11-22T12:02:01.049Z,4.80
2018-11-22T12:04:42.278Z,4.70
2018-11-22T12:07:23.697Z,4.60
2018-11-22T12:10:04.903Z,4.70
2018-11-22T12:12:46.934Z,4.70
2018-11-22T12:15:27.870Z,4.80
2018-11-22T12:18:08.956Z,4.80
2018-11-22T12:20:50.130Z,4.80
2018-11-22T12:23:31.088Z,4.90
2018-11-22T12:26:12.741Z,5.00
2018-11-22T12:28:54.224Z,5.10
2018-11-22T12:31:35.523Z,5.20
2018-11-22T12:34:23.284Z,5.30
2018-11-22T12:37:11.796Z,5.30
2018-11-22T12:39:53.226Z,5.10
2018-11-22T12:42:34.534Z,5.10
2018-11-22T12:45:16.164Z,5.20
2018-11-22T12:47:57.332Z,5.30
2018-11-22T12:50:38.466Z,5.30
2018-11-22T12:53:19.751Z,5.40
2018-11-22T12:56:00.775Z,5.40
2018-11-22T12:58:42.095Z,5.40
2018-11-22T13:01:23.081Z,5.40
2018-11-22T13:04:04.200Z,5.40
2018-11-22T13:06:45.458Z,5.50
2018-11-22T13:09:26.904Z,5.50
2018-11-22T13:12:08.440Z,5.60
2018-11-22T13:14:49.690Z,5.60
2018-11-22T13:17:31.226Z,5.60
2018-11-22T13:20:13.653Z,5.70
2018-11-22T13:22:54.701Z,5.70
2018-11-22T13:25:36.088Z,5.80
2018-11-22T13:28:16.817Z,5.80
2018-11-22T13:30:58.364Z,5.80
2018-11-22T13:33:39.672Z,5.80
2018-11-22T13:36:21.180Z,5.80
2018-11-22T13:39:02.755Z,5.80
2018-11-22T13:41:44.253Z,5.80
2018-11-22T13:44:26.814Z,5.80
2018-11-22T13:47:08.331Z,5.80
2018-11-22T13:49:49.628Z,5.80
2018-11-22T13:52:37.081Z,5.90
2018-11-22T13:55:12.416Z,5.90
2018-11-22T13:57:53.644Z,5.90
2018-11-22T14:00:35.612Z,6.00
2018-11-22T14:03:16.420Z,6.10
2018-11-22T14:05:57.231Z,6.10
2018-11-22T14:08:38.493Z,6.20
2018-11-22T14:11:19.756Z,6.20
2018-11-22T14:14:01.343Z,6.20
2018-11-22T14:16:42.196Z,6.40
2018-11-22T14:19:23.602Z,6.50
2018-11-22T14:22:04.747Z,6.50
2018-11-22T14:24:45.588Z,6.60
2018-11-22T14:27:26.642Z,6.70
2018-11-22T14:30:08.059Z,6.80
2018-11-22T14:32:50.090Z,6.80
2018-11-22T14:35:31.692Z,6.80
2018-11-22T14:38:13.119Z,6.70
2018-11-22T14:40:54.547Z,6.50
2018-11-22T14:43:35.868Z,6.40
2018-11-22T14:46:17.275Z,6.50
2018-11-22T14:48:58.628Z,6.40
2018-11-22T14:51:39.604Z,6.40
2018-11-22T14:54:20.350Z,6.40
2018-11-22T14:57:01.923Z,6.30
2018-11-22T14:59:43.054Z,6.40
2018-11-22T15:02:24.628Z,6.40
2018-11-22T15:05:05.600Z,6.30
2018-11-22T15:07:47.070Z,6.30
2018-11-22T15:10:28.579Z,6.40
2018-11-22T15:13:09.871Z,6.30
2018-11-22T15:15:50.875Z,6.30
2018-11-22T15:18:32.300Z,6.20
2018-11-22T15:21:13.763Z,6.20
2018-11-22T15:23:55.150Z,6.20
2018-11-22T15:26:36.264Z,6.10
2018-11-22T15:29:17.949Z,6.10
2018-11-22T15:31:59.418Z,6.00
2018-11-22T15:34:40.775Z,6.00
2018-11-22T15:37:21.803Z,5.90
2018-11-22T15:40:02.765Z,5.90
2018-11-22T15:42:44.870Z,5.80
2018-11-22T15:45:30.331Z,5.80
2018-11-22T15:48:08.970Z,5.70
2018-11-22T15:50:50.119Z,5.70
2018-11-22T15:53:31.258Z,5.60
2018-11-22T15:56:12.704Z,5.60
2018-11-22T15:58:53.753Z,5.60
2018-11-22T16:01:35.444Z,5.50
2018-11-22T16:04:16.582Z,5.40
2018-11-22T16:06:57.922Z,5.40
2018-11-22T16:09:39.199Z,5.40
2018-11-22T16:12:20.515Z,5.30
2018-11-22T16:15:01.591Z,5.30
2018-11-22T16:17:42.824Z,5.20
2018-11-22T16:20:23.843Z,5.20
2018-11-22T16:23:05.914Z,5.10
2018-11-22T16:25:47.100Z,5.10
2018-11-22T16:28:28.519Z,5.00
2018-11-22T16:31:10.084Z,5.00
2018-11-22T16:33:51.525Z,5.00
2018-11-22T16:36:32.746Z,5.00
2018-11-22T16:39:14.510Z,4.90
2018-11-22T16:41:55.510Z,4.90
2018-11-22T16:44:36.567Z,4.90
2018-11-22T16:47:17.959Z,4.80
2018-11-22T16:49:59.122Z,4.80
2018-11-22T16:52:40.667Z,4.70
2018-11-22T16:55:22.537Z,4.70
2018-11-22T16:58:03.779Z,4.60
2018-11-22T17:00:45.467Z,4.60
2018-11-22T17:03:26.833Z,4.50
2018-11-22T17:06:08.171Z,4.50
2018-11-22T17:08:49.357Z,4.40
2018-11-22T17:11:33.299Z,4.40
2018-11-22T17:14:12.282Z,4.30
2018-11-22T17:16:53.491Z,4.30
2018-11-22T17:19:34.966Z,4.20
2018-11-22T17:22:16.627Z,4.20
2018-11-22T17:24:58.103Z,4.20
2018-11-22T17:27:39.196Z,4.10
2018-11-22T17:30:45.243Z,4.10
2018-11-22T17:33:26.687Z,4.00
2018-11-22T17:36:08.018Z,4.00
2018-11-22T17:38:49.577Z,3.90
2018-11-22T17:41:30.629Z,3.90
2018-11-22T17:44:11.596Z,3.90
2018-11-22T17:46:52.441Z,3.80
2018-11-22T17:49:33.639Z,3.80
2018-11-22T17:52:15.076Z,3.80
2018-11-22T17:54:55.987Z,3.70
2018-11-22T17:57:37.166Z,3.70
2018-11-22T18:00:19.895Z,3.70
2018-11-22T18:03:01.920Z,3.70
2018-11-22T18:05:42.727Z,3.70
2018-11-22T18:08:24.382Z,3.60
2018-11-22T18:11:05.281Z,3.60
2018-11-22T18:13:46.451Z,3.60
2018-11-22T18:16:27.867Z,3.50
2018-11-22T18:19:08.698Z,3.50
2018-11-22T18:21:50.083Z,3.50
2018-11-22T18:24:31.495Z,3.50
2018-11-22T18:27:12.450Z,3.50
2018-11-22T18:29:54.010Z,3.40
2018-11-22T18:32:35.632Z,3.40
2018-11-22T18:35:17.357Z,3.40
2018-11-22T18:37:58.987Z,3.40
2018-11-22T18:40:41.628Z,3.40
2018-11-22T18:43:22.372Z,3.40
2018-11-22T18:46:03.603Z,3.30
2018-11-22T18:48:44.930Z,3.30
2018-11-22T18:51:15.099Z,3.20
2018-11-22T18:54:03.769Z,3.20
2018-11-22T19:00:00.572Z,3.20
2018-11-22T19:02:49.214Z,3.10
2018-11-22T19:05:37.911Z,3.10
2018-11-22T19:08:26.579Z,3.10
2018-11-22T19:11:15.206Z,3.10
2018-11-22T19:14:03.908Z,3.10
2018-11-22T19:16:52.508Z,3.00
2018-11-22T19:19:41.161Z,3.00
2018-11-22T19:22:29.789Z,3.00
2018-11-22T19:25:18.935Z,2.90
2018-11-22T19:28:26.452Z,2.90
2018-11-22T19:31:15.113Z,2.80
2018-11-22T19:34:03.939Z,2.80
2018-11-22T19:36:52.604Z,2.70
2018-11-22T19:39:41.226Z,2.70
2018-11-22T19:42:29.903Z,2.70
2018-11-22T19:45:19.589Z,2.60
2018-11-22T19:48:08.571Z,2.60
2018-11-22T19:50:57.239Z,2.60
2018-11-22T19:53:45.877Z,2.60
2018-11-22T19:56:34.546Z,2.60
2018-11-22T19:59:23.230Z,2.60
2018-11-22T20:02:11.946Z,2.40
2018-11-22T20:05:00.592Z,2.40
2018-11-22T20:07:51.166Z,2.40
2018-11-22T20:10:41.324Z,2.40
2018-11-22T20:13:29.995Z,2.30
2018-11-22T20:16:18.630Z,2.30
2018-11-22T20:19:07.295Z,2.30
2018-11-22T20:21:55.920Z,2.20
2018-11-22T20:24:44.578Z,2.10
2018-11-22T20:27:33.241Z,2.10
2018-11-22T20:30:40.591Z,2.10
2018-11-22T20:33:29.327Z,2.10
2018-11-22T20:36:17.965Z,2.00
2018-11-22T20:39:09.566Z,2.00
2018-11-22T20:41:58.202Z,2.00
2018-11-22T20:44:46.876Z,2.00
2018-11-22T20:47:35.578Z,2.00
2018-11-22T20:50:25.724Z,1.90
2018-11-22T20:53:14.484Z,1.90
2018-11-22T20:56:03.118Z,1.90
2018-11-22T20:58:51.781Z,1.90
2018-11-22T21:01:40.416Z,1.80
2018-11-22T21:04:29.085Z,1.80
2018-11-22T21:07:17.729Z,1.80
2018-11-22T21:13:01.406Z,1.80
2018-11-22T21:15:50.067Z,1.80
2018-11-22T21:18:38.737Z,1.70
2018-11-22T21:21:27.378Z,1.70
2018-11-22T21:24:16.046Z,1.70
2018-11-22T21:27:04.670Z,1.70
2018-11-22T21:29:53.329Z,1.70
2018-11-22T21:32:42.208Z,1.60
2018-11-22T21:35:31.199Z,1.60
2018-11-22T21:38:19.862Z,1.60
2018-11-22T21:41:08.493Z,1.50
2018-11-22T21:43:57.160Z,1.50
2018-11-22T21:46:45.800Z,1.50
2018-11-22T21:49:34.532Z,1.50
2018-11-22T21:52:23.189Z,1.50
2018-11-22T21:55:30.860Z,1.50
2018-11-22T21:58:19.525Z,1.40
2018-11-22T22:01:08.167Z,1.50
2018-11-22T22:03:57.299Z,1.40
2018-11-22T22:06:46.473Z,1.40
2018-11-22T22:09:35.136Z,1.40
2018-11-22T22:12:23.823Z,1.30
2018-11-22T22:15:14.179Z,1.30
2018-11-22T22:18:02.825Z,1.30
2018-11-22T22:20:51.497Z,1.30
2018-11-22T22:23:40.156Z,1.30
2018-11-22T22:26:28.787Z,1.30
2018-11-22T22:29:17.546Z,1.30
2018-11-22T22:32:06.205Z,1.30
2018-11-22T22:34:54.984Z,1.30
2018-11-22T22:37:44.057Z,1.30
2018-11-22T22:40:33.810Z,1.30
2018-11-22T22:43:25.124Z,1.20
2018-11-22T22:46:14.726Z,1.20
2018-11-22T22:49:26.981Z,1.20
2018-11-22T22:52:15.721Z,1.20
2018-11-22T22:55:04.526Z,1.10
2018-11-22T22:57:57.368Z,1.10
2018-11-22T23:01:04.828Z,1.10
2018-11-22T23:03:53.469Z,1.10
2018-11-22T23:06:42.142Z,1.10
2018-11-22T23:09:30.833Z,1.10
2018-11-22T23:12:19.541Z,1.00
2018-11-22T23:15:09.423Z,1.00
2018-11-22T23:17:58.188Z,1.00
2018-11-22T23:20:46.868Z,1.00
2018-11-22T23:23:35.677Z,1.00
2018-11-22T23:26:24.344Z,1.00
2018-11-22T23:29:13.047Z,1.00
2018-11-22T23:32:01.734Z,0.90
2018-11-22T23:34:50.441Z,0.90
2018-11-22T23:37:39.097Z,0.90
2018-11-22T23:40:29.003Z,0.90
2018-11-22T23:43:17.707Z,0.90
2018-11-22T23:46:06.516Z,0.90
2018-11-22T23:48:55.195Z,0.90
2018-11-22T23:51:43.893Z,0.80
2018-11-22T23:54:33.122Z,0.80
2018-11-22T23:57:14.525Z,0.80
2018-11-22T23:59:44.254Z,0.70
